createdAt,value
2018-12-16T00:04:49.948Z,73.45
2018-12-16T00:09:54.976Z,73.79
2018-12-16T00:14:59.713Z,75.01
2018-12-16T00:20:04.373Z,75.38
2018-12-16T00:25:09.432Z,76.33
2018-12-16T00:35:51.602Z,76.97
2018-12-16T00:40:56.002Z,76.67
2018-12-16T00:46:00.492Z,77.35
2018-12-16T00:51:05.033Z,77.60
2018-12-16T00:56:09.583Z,77.43
2018-12-16T01:01:14.161Z,77.18
2018-12-16T01:06:18.662Z,77.32
2018-12-16T01:11:23.233Z,77.22
2018-12-16T01:16:27.923Z,77.30
2018-12-16T01:26:54.279Z,75.54
2018-12-16T01:31:58.640Z,76.13
2018-12-16T01:37:03.134Z,75.85
2018-12-16T01:42:07.598Z,78.44
2018-12-16T01:47:12.259Z,78.82
2018-12-16T01:52:16.975Z,79.80
2018-12-16T01:57:21.588Z,79.76
2018-12-16T02:02:26.058Z,79.91
2018-12-16T02:07:30.573Z,79.72
2018-12-16T02:12:34.982Z,79.51
2018-12-16T02:17:39.588Z,79.43
2018-12-16T02:22:44.144Z,79.47
2018-12-16T02:27:48.653Z,79.52
2018-12-16T02:32:53.173Z,79.75
2018-12-16T02:37:57.880Z,80.41
2018-12-16T02:43:02.443Z,80.65
2018-12-16T02:48:06.940Z,80.86
2018-12-16T02:53:11.358Z,81.16
2018-12-16T02:58:15.688Z,81.55
2018-12-16T03:03:20.429Z,81.87
2018-12-16T03:08:24.907Z,81.83
2018-12-16T03:13:29.352Z,81.75
2018-12-16T03:18:33.916Z,81.43
2018-12-16T03:23:38.234Z,81.06
2018-12-16T03:28:48.410Z,80.78
2018-12-16T03:33:52.933Z,80.83
2018-12-16T03:38:57.314Z,80.62
2018-12-16T03:44:01.739Z,80.80
2018-12-16T03:49:06.272Z,80.58
2018-12-16T03:54:10.669Z,80.77
2018-12-16T03:59:19.383Z,79.98
2018-12-16T04:04:23.849Z,80.61
2018-12-16T04:09:28.344Z,80.22
2018-12-16T04:14:32.816Z,80.07
2018-12-16T04:19:37.381Z,80.49
2018-12-16T04:24:41.776Z,79.78
2018-12-16T04:29:46.190Z,79.96
2018-12-16T04:34:50.720Z,80.01
2018-12-16T04:39:55.184Z,79.90
2018-12-16T04:44:59.738Z,79.96
2018-12-16T04:50:04.415Z,79.73
2018-12-16T04:55:09.025Z,79.54
2018-12-16T05:00:13.698Z,79.03
2018-12-16T05:05:18.230Z,79.38
2018-12-16T05:10:28.443Z,79.24
2018-12-16T05:15:33.029Z,79.29
2018-12-16T05:20:37.624Z,78.96
2018-12-16T05:25:41.989Z,78.76
2018-12-16T05:30:46.714Z,78.93
2018-12-16T05:35:51.124Z,79.17
2018-12-16T05:40:55.420Z,79.26
2018-12-16T05:45:59.985Z,79.48
2018-12-16T05:51:04.488Z,79.16
2018-12-16T05:56:09.019Z,78.81
2018-12-16T06:01:13.419Z,78.21
2018-12-16T06:06:18.073Z,77.64
2018-12-16T06:11:22.640Z,76.87
2018-12-16T06:16:27.167Z,76.35
2018-12-16T06:21:31.800Z,76.76
2018-12-16T06:26:36.123Z,77.60
2018-12-16T06:31:40.656Z,77.75
2018-12-16T06:36:45.248Z,77.67
2018-12-16T06:41:49.668Z,77.87
2018-12-16T06:46:54.185Z,78.08
2018-12-16T06:51:58.723Z,77.89
2018-12-16T06:57:03.200Z,78.46
2018-12-16T07:02:07.724Z,78.30
2018-12-16T07:07:12.283Z,78.72
2018-12-16T07:12:16.787Z,79.13
2018-12-16T07:17:21.331Z,79.36
2018-12-16T07:22:26.042Z,79.45
2018-12-16T07:27:30.383Z,79.58
2018-12-16T07:32:34.962Z,79.60
2018-12-16T07:37:39.363Z,79.71
2018-12-16T07:42:43.932Z,79.80
2018-12-16T07:47:48.474Z,80.06
2018-12-16T07:52:52.898Z,79.63
2018-12-16T07:57:57.602Z,80.04
2018-12-16T08:03:04.513Z,79.27
2018-12-16T08:08:09.042Z,79.47
2018-12-16T08:13:13.634Z,79.35
2018-12-16T08:18:18.170Z,79.41
2018-12-16T08:23:24.968Z,79.42
2018-12-16T08:28:29.383Z,79.14
2018-12-16T08:33:33.981Z,78.73
2018-12-16T08:38:38.328Z,79.35
2018-12-16T08:43:42.970Z,79.91
2018-12-16T08:48:47.566Z,79.97
2018-12-16T08:53:52.146Z,77.67
2018-12-16T08:58:56.674Z,77.39
2018-12-16T09:04:01.428Z,77.91
2018-12-16T09:09:08.531Z,78.11
2018-12-16T09:14:12.984Z,77.81
2018-12-16T09:19:17.448Z,78.18
2018-12-16T09:24:22.108Z,77.52
2018-12-16T09:29:26.499Z,77.02
2018-12-16T09:34:30.928Z,79.46
2018-12-16T09:39:35.373Z,81.79
2018-12-16T09:44:40.063Z,81.82
2018-12-16T09:49:44.614Z,81.46
2018-12-16T09:54:49.137Z,82.06
2018-12-16T09:59:53.425Z,82.34
2018-12-16T10:04:57.715Z,82.34
2018-12-16T10:10:02.196Z,82.78
2018-12-16T10:15:07.003Z,82.88
2018-12-16T10:20:12.582Z,82.92
2018-12-16T10:25:16.964Z,83.00
2018-12-16T10:30:21.338Z,83.72
2018-12-16T10:35:25.658Z,83.54
2018-12-16T10:40:30.219Z,83.20
2018-12-16T10:45:34.734Z,83.32
2018-12-16T10:50:39.185Z,83.57
2018-12-16T10:55:43.769Z,83.85
2018-12-16T11:00:52.313Z,83.89
2018-12-16T11:05:56.883Z,83.08
2018-12-16T11:11:03.373Z,83.11
2018-12-16T11:16:07.914Z,82.32
2018-12-16T11:21:12.338Z,82.26
2018-12-16T11:26:16.929Z,81.97
2018-12-16T11:31:21.405Z,82.09
2018-12-16T11:36:25.860Z,81.86
2018-12-16T11:42:33.531Z,82.07
2018-12-16T11:47:37.949Z,81.83
2018-12-16T11:52:42.399Z,82.55
2018-12-16T11:57:46.830Z,82.88
2018-12-16T12:02:51.078Z,82.68
2018-12-16T12:24:19.307Z,82.37
2018-12-16T12:29:24.245Z,83.03
2018-12-16T12:34:28.845Z,83.28
2018-12-16T12:39:33.517Z,83.25
2018-12-16T12:44:37.990Z,83.57
2018-12-16T12:49:45.090Z,82.98
2018-12-16T12:54:48.806Z,82.68
2018-12-16T12:59:53.410Z,81.86
2018-12-16T13:04:57.917Z,81.07
2018-12-16T13:10:02.377Z,79.63
2018-12-16T13:15:09.149Z,80.50
2018-12-16T13:20:13.718Z,81.28
2018-12-16T13:25:33.643Z,81.51
2018-12-16T13:30:33.137Z,81.82
2018-12-16T13:35:37.517Z,80.01
2018-12-16T13:40:42.177Z,79.04
2018-12-16T13:45:46.777Z,79.90
2018-12-16T13:50:51.436Z,79.35
2018-12-16T13:55:55.897Z,79.59
2018-12-16T14:01:00.250Z,79.50
2018-12-16T14:06:04.770Z,78.64
2018-12-16T14:11:09.291Z,78.32
2018-12-16T14:16:13.776Z,78.54
2018-12-16T14:21:18.598Z,78.40
2018-12-16T14:26:23.118Z,79.25
2018-12-16T14:31:27.897Z,76.98
2018-12-16T14:36:32.598Z,77.23
2018-12-16T14:41:37.078Z,78.41
2018-12-16T14:46:41.676Z,77.95
2018-12-16T14:51:46.297Z,78.08
2018-12-16T14:56:50.897Z,77.79
2018-12-16T15:01:55.517Z,76.74
2018-12-16T15:07:00.097Z,77.15
2018-12-16T15:12:04.596Z,76.82
2018-12-16T15:17:09.217Z,76.28
2018-12-16T15:22:13.717Z,77.02
2018-12-16T15:27:18.157Z,76.62
2018-12-16T15:32:22.917Z,76.59
2018-12-16T15:37:28.177Z,76.02
2018-12-16T15:42:32.799Z,76.73
2018-12-16T15:53:15.517Z,76.68
2018-12-16T15:58:20.117Z,77.70
2018-12-16T16:03:24.776Z,77.73
2018-12-16T16:08:29.356Z,77.22
2018-12-16T16:13:33.956Z,77.02
2018-12-16T16:18:39.918Z,75.75
2018-12-16T16:23:44.538Z,75.96
2018-12-16T16:28:49.218Z,76.52
2018-12-16T16:33:54.139Z,76.54
2018-12-16T16:38:58.819Z,76.71
2018-12-16T16:44:03.358Z,76.47
2018-12-16T16:49:07.879Z,76.88
2018-12-16T16:54:12.538Z,76.13
2018-12-16T16:59:16.899Z,76.71
2018-12-16T17:04:21.399Z,76.42
2018-12-16T17:15:04.421Z,76.47
2018-12-16T17:20:09.119Z,76.38
2018-12-16T17:25:13.678Z,76.03
2018-12-16T17:30:18.098Z,75.93
2018-12-16T17:35:22.759Z,76.43
2018-12-16T17:40:41.569Z,76.09
2018-12-16T17:51:14.129Z,75.71
2018-12-16T17:56:18.830Z,75.99
2018-12-16T18:01:34.989Z,75.19
2018-12-16T18:06:39.989Z,75.55
2018-12-16T18:11:44.957Z,75.71
2018-12-16T18:16:49.574Z,75.84
2018-12-16T18:21:54.094Z,75.83
2018-12-16T18:26:58.714Z,74.69
2018-12-16T18:32:03.154Z,74.19
2018-12-16T18:37:07.906Z,74.39
2018-12-16T18:42:12.574Z,73.03
2018-12-16T18:47:17.113Z,73.09
2018-12-16T18:52:21.634Z,73.39
2018-12-16T18:57:26.273Z,74.35
2018-12-16T19:02:30.894Z,75.38
2018-12-16T19:07:35.714Z,75.60
2018-12-16T19:12:40.274Z,77.78
2018-12-16T19:17:44.694Z,78.59
2018-12-16T19:22:49.237Z,78.93
2018-12-16T19:27:53.913Z,79.03
2018-12-16T19:32:58.332Z,79.79
2018-12-16T19:38:03.319Z,79.90
2018-12-16T19:43:08.137Z,80.03
2018-12-16T19:48:12.814Z,80.75
2018-12-16T19:53:17.253Z,79.93
2018-12-16T19:58:22.173Z,80.46
2018-12-16T20:03:26.734Z,80.45
2018-12-16T20:08:31.334Z,80.43
2018-12-16T20:13:35.833Z,80.75
2018-12-16T20:18:40.514Z,81.12
2018-12-16T20:23:44.853Z,81.26
2018-12-16T20:28:49.233Z,81.16
2018-12-16T20:33:53.815Z,79.91
2018-12-16T20:38:58.453Z,79.72
2018-12-16T20:44:03.175Z,79.40
2018-12-16T20:49:07.674Z,79.55
2018-12-16T20:54:12.273Z,79.87
2018-12-16T20:59:16.794Z,79.72
2018-12-16T21:04:21.354Z,79.52
2018-12-16T21:09:26.034Z,79.49
2018-12-16T21:14:34.833Z,79.54
2018-12-16T21:19:39.333Z,79.49
2018-12-16T21:24:43.815Z,79.44
2018-12-16T21:29:48.314Z,79.70
2018-12-16T21:34:52.813Z,79.39
2018-12-16T21:39:57.653Z,79.03
2018-12-16T21:45:02.315Z,79.03
2018-12-16T21:50:07.652Z,79.34
2018-12-16T21:55:12.193Z,79.29
2018-12-16T22:00:16.914Z,79.71
2018-12-16T22:05:25.393Z,79.92
2018-12-16T22:10:33.453Z,79.96
2018-12-16T22:15:37.997Z,79.47
2018-12-16T22:20:42.525Z,79.99
2018-12-16T22:25:47.105Z,79.97
2018-12-16T22:30:51.764Z,79.94
2018-12-16T22:35:56.293Z,80.49
2018-12-16T22:41:00.973Z,80.18
2018-12-16T22:46:05.594Z,79.80
2018-12-16T22:51:10.132Z,79.30
2018-12-16T22:56:14.875Z,79.45
2018-12-16T23:01:19.552Z,79.49
2018-12-16T23:06:23.993Z,79.94
2018-12-16T23:11:29.732Z,79.55
2018-12-16T23:16:34.392Z,80.26
2018-12-16T23:21:38.835Z,80.36
2018-12-16T23:26:43.312Z,80.17
2018-12-16T23:31:47.833Z,80.88
2018-12-16T23:36:52.533Z,80.41
2018-12-16T23:41:57.153Z,80.20
2018-12-16T23:47:01.692Z,80.29
2018-12-16T23:52:06.291Z,80.20
2018-12-16T23:57:10.872Z,80.12
